Time;durP1;ratioP1;P1;durP2;ratioP2;P2;SDS_P1;SDS_P2;PMS_P1;PMS_P2;Temp;Humidity;BMP_temperature;BMP_pressure;BME280_temperature;BME280_humidity;BME280_pressure;Samples;Min_cycle;Max_cycle;Signal;HPM_P1;HPM_P2
2021/12/05 00:22:26;;;;;;;;;0.00;0.00;;;;;20.95;33.73;99846.38;5099897;27;46159;-58
2021/12/05 00:24:56;;;;;;;;;0.75;0.75;;;;;20.94;34.19;99828.06;5099566;27;45711;-58
2021/12/05 00:27:28;;;;;;;;;2.00;1.00;;;;;20.92;33.97;99830.78;5081264;27;45449;-57
2021/12/05 00:30:16;;;;;;;;;1.00;1.00;;;;;20.91;34.00;99821.19;5099852;27;45481;-58
2021/12/05 00:43:47;;;;;;;;;1.00;1.00;;;;;20.96;34.08;99816.44;5099317;27;45718;-59
2021/12/05 01:15:05;;;;;;;;;0.00;0.00;;;;;21.41;34.22;99804.38;5099125;27;45397;-60
2021/12/05 01:17:43;;;;;;;;;2.00;1.00;;;;;21.44;34.25;99798.91;5098819;27;45803;-60
2021/12/05 01:20:15;;;;;;;;;1.25;0.00;;;;;21.45;34.07;99805.81;5082385;27;45489;-61
2021/12/05 01:22:48;;;;;;;;;1.00;1.00;;;;;21.47;33.95;99793.38;5098937;27;45624;-63
2021/12/05 01:25:23;;;;;;;;;0.00;0.00;;;;;21.51;33.95;99792.19;5098868;27;45274;-58
2021/12/05 01:27:59;;;;;;;;;0.00;0.00;;;;;21.52;34.35;99788.59;5099331;27;45641;-59
2021/12/05 01:30:34;;;;;;;;;1.00;0.00;;;;;21.54;34.10;99786.69;5098972;27;45398;-61
2021/12/05 02:15:57;;;;;;;;;0.00;0.00;;;;;21.85;34.13;99765.03;5098370;27;45410;-59
2021/12/05 02:42:52;;;;;;;;;0.00;0.00;;;;;21.97;33.91;99763.25;5097373;27;45335;-63
2021/12/05 02:44:54;;;;;;;;;0.00;0.00;;;;;21.98;33.67;99770.22;5086771;27;45217;-62
2021/12/05 02:47:22;;;;;;;;;0.00;0.00;;;;;21.99;33.90;99761.34;5079637;27;45581;-59
2021/12/05 02:49:52;;;;;;;;;0.00;0.00;;;;;21.99;34.13;99750.78;5097384;27;45440;-60
2021/12/05 02:52:25;;;;;;;;;0.00;0.00;;;;;21.99;33.59;99746.34;5097449;27;45721;-58
2021/12/05 02:54:54;;;;;;;;;0.00;0.00;;;;;21.99;33.56;99743.69;5079361;27;45399;-59
2021/12/05 02:57:34;;;;;;;;;1.00;0.00;;;;;22.00;33.92;99741.88;5079597;27;45557;-58
2021/12/05 03:00:07;;;;;;;;;0.00;0.00;;;;;21.98;33.70;99733.28;5097241;27;47489;-59
2021/12/05 03:02:39;;;;;;;;;0.00;0.00;;;;;21.97;33.72;99727.16;5097019;27;45360;-57
2021/12/05 03:05:09;;;;;;;;;0.00;0.00;;;;;21.97;33.81;99732.41;5097437;27;45502;-58
2021/12/05 03:07:39;;;;;;;;;0.00;0.00;;;;;21.95;33.82;99728.22;5097177;27;45544;-59
2021/12/05 03:10:06;;;;;;;;;0.00;0.00;;;;;21.93;33.73;99729.19;5097208;27;46523;-58
2021/12/05 03:12:34;;;;;;;;;0.00;0.00;;;;;21.92;33.65;99735.44;5096969;27;45425;-61
2021/12/05 03:15:03;;;;;;;;;1.00;0.00;;;;;21.90;33.87;99726.78;5097153;27;45322;-58
2021/12/05 03:17:29;;;;;;;;;0.00;0.00;;;;;21.92;33.59;99724.03;5097625;27;45494;-60
2021/12/05 03:19:55;;;;;;;;;0.00;0.00;;;;;21.89;33.55;99730.38;5097305;27;45398;-58
2021/12/05 03:22:20;;;;;;;;;0.00;0.00;;;;;21.87;33.76;99718.28;5097135;27;45342;-63
2021/12/05 03:24:46;;;;;;;;;0.00;0.00;;;;;21.88;33.96;99722.59;5097273;27;45464;-62
2021/12/05 03:27:11;;;;;;;;;0.00;0.00;;;;;21.87;33.78;99720.91;5097379;27;45454;-58
2021/12/05 03:29:36;;;;;;;;;0.00;0.00;;;;;21.86;34.01;99722.72;5096904;27;45456;-59
2021/12/05 03:32:02;;;;;;;;;0.00;0.00;;;;;21.86;33.81;99716.59;5096835;27;45396;-62
2021/12/05 03:34:28;;;;;;;;;0.00;0.00;;;;;21.85;33.79;99718.41;5099065;27;45520;-60
2021/12/05 03:36:56;;;;;;;;;0.00;0.00;;;;;21.84;33.55;99724.66;5101098;27;45532;-59
2021/12/05 03:39:22;;;;;;;;;0.00;0.00;;;;;21.83;33.74;99724.78;5100442;27;46111;-59
2021/12/05 03:41:49;;;;;;;;;0.00;0.00;;;;;21.80;33.58;99717.91;5082163;27;45373;-59
2021/12/05 03:44:17;;;;;;;;;0.00;0.00;;;;;21.78;33.77;99711.91;5100589;27;45372;-58
2021/12/05 03:46:42;;;;;;;;;0.00;0.00;;;;;21.75;33.45;99704.28;5100488;27;45573;-59
2021/12/05 03:49:11;;;;;;;;;0.00;0.00;;;;;21.73;33.52;99704.38;5100337;27;45346;-58
2021/12/05 03:51:44;;;;;;;;;0.00;0.00;;;;;21.72;33.74;99705.31;5100189;27;45211;-59
2021/12/05 03:54:11;;;;;;;;;1.00;0.00;;;;;21.66;33.37;99705.00;5100443;27;45365;-61
2021/12/05 03:56:37;;;;;;;;;0.00;0.00;;;;;21.69;33.68;99712.66;5100412;27;45646;-58
2021/12/05 03:59:04;;;;;;;;;0.00;0.00;;;;;21.67;33.64;99706.66;5100030;27;45409;-60
2021/12/05 04:01:30;;;;;;;;;0.00;0.00;;;;;21.64;33.78;99701.63;5100144;27;45459;-58
2021/12/05 04:03:55;;;;;;;;;0.00;0.00;;;;;21.64;33.66;99696.38;5100297;27;45494;-58
2021/12/05 04:06:23;;;;;;;;;0.00;0.00;;;;;21.62;33.64;99694.69;5100386;27;45404;-59
2021/12/05 04:08:49;;;;;;;;;1.00;0.00;;;;;21.61;33.57;99706.19;5081560;27;47723;-58
2021/12/05 04:11:24;;;;;;;;;0.50;0.00;;;;;21.58;33.50;99693.19;5099980;27;45343;-63
2021/12/05 04:13:49;;;;;;;;;0.00;0.00;;;;;21.58;33.75;99692.38;5099965;27;45436;-59
2021/12/05 04:16:15;;;;;;;;;1.00;0.00;;;;;21.56;33.80;99695.13;5100276;27;45556;-58
2021/12/05 04:18:41;;;;;;;;;0.00;0.00;;;;;21.54;33.90;99699.69;5099812;27;46632;-61
2021/12/05 04:21:07;;;;;;;;;0.00;0.00;;;;;21.54;33.41;99702.31;5099755;27;45371;-58
2021/12/05 04:23:33;;;;;;;;;0.00;0.00;;;;;21.52;33.51;99696.31;5099888;27;45228;-59
2021/12/05 04:26:00;;;;;;;;;0.00;0.00;;;;;21.54;33.87;99699.69;5082063;27;45656;-58
2021/12/05 04:28:25;;;;;;;;;0.00;0.00;;;;;21.55;33.88;99697.88;5099978;27;46322;-60
2021/12/05 04:30:51;;;;;;;;;0.00;0.00;;;;;21.57;33.82;99696.78;5099660;27;45414;-57
2021/12/05 04:33:16;;;;;;;;;0.00;0.00;;;;;21.62;33.60;99701.75;5099701;27;45342;-57
2021/12/05 04:35:42;;;;;;;;;0.00;0.00;;;;;21.64;33.90;99701.63;5099778;27;45379;-57
2021/12/05 04:38:08;;;;;;;;;0.00;0.00;;;;;21.65;33.71;99700.69;5099547;27;46162;-57
2021/12/05 04:40:33;;;;;;;;;1.25;0.00;;;;;21.69;33.84;99691.56;5099421;27;45389;-57
2021/12/05 04:43:03;;;;;;;;;0.00;0.00;;;;;21.72;33.70;99696.59;5099674;27;45325;-57
2021/12/05 04:45:31;;;;;;;;;0.75;0.00;;;;;21.73;33.63;99683.28;5080676;27;45642;-58
2021/12/05 04:47:58;;;;;;;;;0.00;0.00;;;;;21.77;33.65;99690.00;5099649;27;46696;-58
2021/12/05 04:50:25;;;;;;;;;0.00;0.00;;;;;21.78;33.52;99690.81;5099245;27;46192;-58
2021/12/05 04:52:51;;;;;;;;;0.00;0.00;;;;;21.80;33.57;99688.09;5099448;27;45406;-57
2021/12/05 04:55:17;;;;;;;;;0.00;0.00;;;;;21.82;33.85;99691.44;5099713;27;45526;-59
2021/12/05 04:57:43;;;;;;;;;0.00;0.00;;;;;21.86;33.76;99684.94;5099045;27;47122;-59
2021/12/05 05:00:30;;;;;;;;;0.00;0.00;;;;;21.87;33.66;99687.47;5099301;27;45256;-59
2021/12/05 05:02:56;;;;;;;;;0.00;0.00;;;;;21.89;33.36;99687.34;5099193;27;45364;-61
2021/12/05 05:05:23;;;;;;;;;0.00;0.00;;;;;21.91;33.48;99688.91;5099509;27;45460;-62
2021/12/05 05:07:49;;;;;;;;;0.00;0.00;;;;;21.93;33.50;99676.44;5098074;27;45412;-61
2021/12/05 05:10:23;;;;;;;;;0.00;0.00;;;;;21.93;33.31;99681.72;5098954;27;45484;-61
2021/12/05 05:12:49;;;;;;;;;0.25;0.00;;;;;21.97;33.29;99677.03;5099031;27;45347;-60
2021/12/05 05:15:20;;;;;;;;;0.00;0.00;;;;;21.98;33.72;99683.16;5099226;27;45340;-59
2021/12/05 05:17:49;;;;;;;;;0.00;0.00;;;;;22.01;33.19;99677.59;5098742;27;46392;-61
2021/12/05 05:51:58;;;;;;;;;1.00;0.00;;;;;22.04;33.27;99693.19;5098423;27;45204;-58
2021/12/05 05:54:24;;;;;;;;;1.00;0.00;;;;;22.02;33.05;99693.34;5098690;27;45228;-59
2021/12/05 05:56:56;;;;;;;;;0.00;0.00;;;;;22.01;33.15;99691.66;5080232;27;45521;-60
2021/12/05 05:59:29;;;;;;;;;0.00;0.00;;;;;22.00;33.15;99682.06;5098404;27;46463;-60
2021/12/05 06:03:20;;;;;;;;;1.00;0.00;;;;;22.01;33.18;99675.81;5098058;27;45844;-59
2021/12/05 06:04:45;;;;;;;;;0.00;0.00;;;;;22.00;33.18;99662.72;5083367;27;45406;-59
2021/12/05 06:07:12;;;;;;;;;0.00;0.00;;;;;22.00;33.13;99670.66;5098262;27;45355;-60
2021/12/05 06:09:37;;;;;;;;;0.00;0.00;;;;;21.99;33.07;99676.91;5097946;27;45539;-60
2021/12/05 06:12:03;;;;;;;;;0.00;0.00;;;;;21.99;33.14;99676.91;5098423;27;45421;-59
2021/12/05 06:14:30;;;;;;;;;0.00;0.00;;;;;21.97;33.19;99665.63;5098244;27;45327;-59
2021/12/05 06:16:55;;;;;;;;;1.00;0.00;;;;;21.96;32.99;99662.16;5098293;27;45568;-60
2021/12/05 06:19:20;;;;;;;;;0.00;0.00;;;;;21.91;30.96;99659.88;5097935;27;46419;-60
2021/12/05 06:21:46;;;;;;;;;0.00;0.00;;;;;21.79;30.38;99663.50;5097908;27;45214;-58
2021/12/05 06:24:12;;;;;;;;;0.50;0.50;;;;;21.64;30.13;99657.63;5097926;27;45498;-59
2021/12/05 06:26:37;;;;;;;;;0.00;0.00;;;;;21.49;29.85;99659.66;5098074;27;45336;-58
2021/12/05 06:29:12;;;;;;;;;1.00;1.00;;;;;21.34;30.04;99664.31;5079700;27;47015;-58
2021/12/05 06:31:57;;;;;;;;;1.00;1.00;;;;;21.16;30.16;99667.44;5097922;27;45625;-59
2021/12/05 06:43:01;;;;;;;;;1.00;1.00;;;;;20.59;30.05;99671.66;5098001;27;45334;-58
2021/12/05 06:48:04;;;;;;;;;0.00;0.00;;;;;20.42;31.14;99670.25;5098038;27;45422;-57
2021/12/05 06:50:30;;;;;;;;;0.00;0.00;;;;;20.42;31.61;99664.19;5097512;27;45549;-59
2021/12/05 06:52:55;;;;;;;;;0.00;0.00;;;;;20.45;31.38;99658.69;5097482;27;45306;-59
2021/12/05 06:55:21;;;;;;;;;0.00;0.00;;;;;20.51;31.35;99658.22;5097709;27;45228;-58
2021/12/05 06:57:47;;;;;;;;;0.00;0.00;;;;;20.55;31.52;99671.03;5097674;27;45267;-57
2021/12/05 07:00:17;;;;;;;;;0.00;0.00;;;;;20.61;31.26;99675.03;5097388;27;45969;-62
2021/12/05 07:02:43;;;;;;;;;0.25;0.00;;;;;20.66;31.51;99683.44;5097318;27;45650;-63
2021/12/05 07:07:43;;;;;;;;;0.00;0.00;;;;;20.72;31.27;99695.31;5097239;27;45386;-61
2021/12/05 07:10:13;;;;;;;;;2.00;1.00;;;;;20.76;31.73;99702.03;5096849;27;45425;-61
2021/12/05 07:15:26;;;;;;;;;0.00;0.00;;;;;20.79;32.25;99688.63;5097399;27;45378;-57
2021/12/05 07:23:28;;;;;;;;;0.00;0.00;;;;;20.83;31.80;99687.47;5096906;27;45327;-58
2021/12/05 07:26:07;;;;;;;;;0.00;0.00;;;;;20.87;31.89;99676.69;5097102;27;45228;-58
2021/12/05 07:42:23;;;;;;;;;0.00;0.00;;;;;20.89;32.44;99678.25;5096780;27;45320;-57
2021/12/05 07:44:49;;;;;;;;;0.00;0.00;;;;;20.88;32.38;99678.38;5096901;27;45658;-57
2021/12/05 07:47:23;;;;;;;;;0.00;0.00;;;;;20.89;32.32;99672.97;5097042;27;45271;-58
2021/12/05 07:49:49;;;;;;;;;0.00;0.00;;;;;20.91;32.16;99681.59;5096897;27;45382;-59
2021/12/05 07:52:21;;;;;;;;;1.00;0.00;;;;;20.89;32.47;99686.13;5095783;27;46137;-56
2021/12/05 07:54:52;;;;;;;;;0.00;0.00;;;;;20.88;31.98;99681.84;5096910;27;45644;-57
2021/12/05 08:16:12;;;;;;;;;0.00;0.00;;;;;20.87;32.25;99690.72;5096967;27;45347;-59
2021/12/05 08:18:37;;;;;;;;;0.00;0.00;;;;;20.88;32.46;99694.16;5096852;27;45338;-62
2021/12/05 08:21:05;;;;;;;;;0.00;0.00;;;;;20.88;32.14;99696.81;5079673;27;45615;-59
2021/12/05 08:23:31;;;;;;;;;0.00;0.00;;;;;20.87;32.65;99687.22;5099697;27;46537;-57
2021/12/05 08:26:06;;;;;;;;;0.25;0.25;;;;;20.88;32.27;99699.44;5099738;27;45493;-59
2021/12/05 09:24:50;;;;;;;;;1.25;0.00;;;;;20.65;33.19;99739.66;5099493;27;45435;-56
2021/12/05 09:27:49;;;;;;;;;1.00;1.00;;;;;20.66;33.34;99736.09;5098659;27;46356;-57
2021/12/05 09:30:43;;;;;;;;;0.00;0.00;;;;;20.66;33.21;99736.09;5098831;27;45687;-57
2021/12/05 09:39:18;;;;;;;;;0.00;0.00;;;;;20.71;33.07;99746.28;5098396;27;45382;-54
2021/12/05 10:15:14;;;;;;;;;0.25;0.25;;;;;20.58;33.32;99762.09;5094445;27;45386;-56
2021/12/05 10:18:24;;;;;;;;;1.00;1.00;;;;;20.58;33.36;99764.75;5097597;27;45468;-57
2021/12/05 10:37:08;;;;;;;;;0.50;0.50;;;;;20.55;33.46;99749.19;5096936;27;45920;-54
2021/12/05 10:39:34;;;;;;;;;1.00;0.00;;;;;20.55;33.00;99754.47;5097317;27;45350;-56
2021/12/05 10:42:24;;;;;;;;;2.25;1.00;;;;;20.54;32.96;99758.03;5097110;27;45605;-54
2021/12/05 10:44:49;;;;;;;;;0.00;0.00;;;;;20.54;33.11;99743.06;5095942;27;46817;-58
2021/12/05 10:47:35;;;;;;;;;0.50;0.00;;;;;20.54;33.13;99744.88;5097511;27;45377;-56
2021/12/05 10:50:39;;;;;;;;;2.25;1.00;;;;;20.52;33.33;99736.25;5097142;27;45236;-55
2021/12/05 10:53:30;;;;;;;;;1.50;1.00;;;;;20.53;33.24;99735.28;5097122;27;45627;-55
2021/12/05 10:56:02;;;;;;;;;2.00;2.00;;;;;20.51;33.20;99738.03;5096796;27;45546;-59
2021/12/05 10:58:42;;;;;;;;;1.00;1.00;;;;;20.51;33.13;99731.94;5097202;27;45885;-57
2021/12/05 11:01:28;;;;;;;;;1.00;1.00;;;;;20.50;32.86;99730.25;5096888;27;45433;-55
2021/12/05 11:04:12;;;;;;;;;1.75;1.75;;;;;20.48;33.28;99722.47;5095717;27;45487;-57
2021/12/05 11:06:39;;;;;;;;;1.00;1.00;;;;;20.48;32.90;99721.63;5096722;27;45571;-56
2021/12/05 11:09:07;;;;;;;;;0.50;0.50;;;;;20.50;33.05;99728.47;5078385;27;45859;-54
2021/12/05 11:11:33;;;;;;;;;2.00;1.00;;;;;20.47;33.17;99714.66;5096789;27;45223;-57
2021/12/05 11:14:01;;;;;;;;;0.50;0.50;;;;;20.52;33.17;99725.72;5078150;27;45255;-54
2021/12/05 11:16:45;;;;;;;;;1.00;0.00;;;;;20.57;33.11;99720.13;5096069;27;47181;-57
2021/12/05 11:19:10;;;;;;;;;1.00;1.00;;;;;20.60;33.48;99723.34;5096275;27;45965;-58
2021/12/05 11:21:38;;;;;;;;;1.00;1.00;;;;;20.65;33.07;99718.59;5096794;27;45362;-54
2021/12/05 11:24:08;;;;;;;;;1.00;1.00;;;;;20.66;33.57;99715.03;5095826;27;45677;-57
2021/12/05 11:26:34;;;;;;;;;0.75;0.75;;;;;20.76;33.35;99727.53;5091098;27;46303;-53
2021/12/05 11:29:00;;;;;;;;;1.00;0.25;;;;;20.82;33.55;99724.44;5095445;27;45942;-51
2021/12/05 11:31:28;;;;;;;;;2.00;1.00;;;;;20.88;33.55;99717.88;5092637;27;45499;-55
2021/12/05 11:33:55;;;;;;;;;0.50;0.50;;;;;20.93;33.00;99727.09;5078562;27;45433;-55
2021/12/05 11:36:30;;;;;;;;;1.75;1.00;;;;;20.96;33.55;99724.25;5096201;27;46219;-55
2021/12/05 11:38:56;;;;;;;;;3.00;1.25;;;;;21.00;33.11;99725.69;5096356;27;45358;-56
2021/12/05 11:41:23;;;;;;;;;0.75;0.75;;;;;21.04;33.24;99714.94;5078489;27;45360;-55
2021/12/05 11:43:53;;;;;;;;;0.75;0.75;;;;;21.08;33.30;99726.91;5097025;27;45499;-57
2021/12/05 11:46:27;;;;;;;;;1.50;1.00;;;;;21.09;33.48;99720.69;5096686;27;47205;-52
2021/12/05 11:48:56;;;;;;;;;1.75;1.75;;;;;21.12;33.54;99731.84;5096282;27;45889;-57
2021/12/05 11:51:36;;;;;;;;;1.75;0.75;;;;;21.15;33.60;99730.75;5096343;27;45324;-53
2021/12/05 11:54:09;;;;;;;;;1.00;0.50;;;;;21.17;33.71;99734.13;5096783;27;45384;-56
2021/12/05 11:56:34;;;;;;;;;1.75;1.00;;;;;21.18;33.53;99749.00;5099585;27;46102;-54
2021/12/05 11:59:14;;;;;;;;;2.67;0.00;;;;;21.19;33.77;99761.22;5081421;27;45389;-54
2021/12/05 12:01:43;;;;;;;;;1.75;1.00;;;;;21.20;33.81;99760.25;5099723;27;45395;-56
2021/12/05 12:04:11;;;;;;;;;0.00;0.00;;;;;21.20;33.32;99764.66;5100064;27;45222;-56
2021/12/05 12:06:38;;;;;;;;;0.25;0.25;;;;;21.20;33.65;99765.53;5099477;27;47202;-55
2021/12/05 12:09:05;;;;;;;;;1.00;1.00;;;;;21.23;33.73;99765.28;5081252;27;45824;-55
2021/12/05 12:11:31;;;;;;;;;1.00;1.00;;;;;21.23;33.51;99772.34;5099823;27;45326;-55
2021/12/05 12:13:56;;;;;;;;;1.00;1.00;;;;;21.20;33.83;99759.41;5100675;27;45269;-57
2021/12/05 12:16:22;;;;;;;;;1.00;1.00;;;;;21.20;33.79;99754.97;5099367;27;45337;-53
2021/12/05 12:18:50;;;;;;;;;0.75;0.00;;;;;21.23;33.34;99765.28;5099044;27;45336;-57
2021/12/05 12:21:20;;;;;;;;;1.00;0.25;;;;;21.22;33.75;99762.75;5100004;27;45547;-55
2021/12/05 12:23:52;;;;;;;;;1.00;1.00;;;;;21.25;33.79;99770.44;5100020;27;45328;-55
2021/12/05 12:26:19;;;;;;;;;1.00;1.00;;;;;21.20;33.68;99769.94;5100189;27;45456;-56
2021/12/05 12:28:45;;;;;;;;;2.50;2.50;;;;;21.23;33.60;99767.91;5081141;27;46089;-58
2021/12/05 12:31:22;;;;;;;;;2.00;0.50;;;;;21.25;33.99;99784.44;5099796;27;45346;-57
2021/12/05 12:33:54;;;;;;;;;3.50;2.25;;;;;21.27;33.93;99782.53;5100547;27;45339;-56
2021/12/05 12:36:42;;;;;;;;;3.25;1.25;;;;;21.30;33.91;99782.31;5099826;27;46402;-58
2021/12/05 12:39:24;;;;;;;;;3.00;3.00;;;;;21.34;33.94;99782.94;5099603;27;45294;-61
2021/12/05 12:42:23;;;;;;;;;6.25;3.75;;;;;21.36;33.90;99770.47;5099851;27;45358;-60
2021/12/05 12:44:56;;;;;;;;;5.75;4.25;;;;;21.40;34.01;99784.25;5098666;27;45426;-57
2021/12/05 12:47:31;;;;;;;;;11.00;7.25;;;;;21.43;34.26;99776.13;5099187;27;45363;-60
2021/12/05 12:50:21;;;;;;;;;14.25;8.75;;;;;21.46;33.97;99775.88;5099364;27;45353;-60
2021/12/05 12:53:00;;;;;;;;;12.25;10.25;;;;;21.47;33.75;99781.03;5099673;27;45350;-60
2021/12/05 12:55:32;;;;;;;;;19.25;16.00;;;;;21.51;33.79;99786.06;5081282;27;45399;-60
2021/12/05 12:57:58;;;;;;;;;31.00;22.00;;;;;21.53;34.17;99784.16;5099169;27;46295;-61
2021/12/05 13:00:27;;;;;;;;;31.50;22.50;;;;;21.54;33.94;99778.78;5099380;27;45805;-58
2021/12/05 13:02:59;;;;;;;;;49.50;33.50;;;;;21.57;33.69;99788.25;5099542;27;45367;-60
2021/12/05 13:11:08;;;;;;;;;37.00;30.25;;;;;21.61;33.98;99795.84;5098972;27;45869;-61
2021/12/05 13:13:36;;;;;;;;;32.25;27.25;;;;;21.64;33.88;99801.84;5099199;27;45431;-58
2021/12/05 13:16:15;;;;;;;;;44.00;30.75;;;;;21.60;33.80;99788.88;5099197;27;45378;-56
2021/12/05 13:18:44;;;;;;;;;40.00;27.75;;;;;21.67;33.51;99805.06;5098638;27;45590;-59
2021/12/05 13:21:36;;;;;;;;;35.50;25.75;;;;;21.69;34.08;99803.16;5089432;27;45508;-57
2021/12/05 13:24:41;;;;;;;;;30.75;22.00;;;;;21.72;34.05;99804.72;5080921;27;45484;-56
2021/12/05 13:27:10;;;;;;;;;29.00;21.00;;;;;21.77;34.05;99821.03;5098476;27;45239;-50
2021/12/05 13:29:46;;;;;;;;;25.50;20.50;;;;;21.78;34.06;99812.16;5098701;27;45336;-53
2021/12/05 13:32:16;;;;;;;;;26.25;21.50;;;;;21.82;33.75;99813.59;5079670;27;45768;-62
2021/12/05 13:34:41;;;;;;;;;33.75;20.75;;;;;21.85;33.70;99818.66;5098437;27;45336;-61
2021/12/05 13:37:08;;;;;;;;;23.00;15.25;;;;;21.87;34.14;99819.38;5098572;27;45533;-58
2021/12/05 13:39:47;;;;;;;;;31.50;21.00;;;;;21.87;33.96;99813.25;5097924;27;46548;-60
2021/12/05 13:42:46;;;;;;;;;23.75;16.00;;;;;21.93;33.94;99823.34;5062523;27;45340;-55
2021/12/05 13:45:25;;;;;;;;;31.25;19.75;;;;;21.91;34.00;99820.78;5098072;27;45342;-55
2021/12/05 13:47:51;;;;;;;;;22.50;15.00;;;;;21.98;33.96;99823.81;5098337;27;45560;-50
2021/12/05 13:50:16;;;;;;;;;20.33;15.67;;;;;22.00;33.82;99826.31;5097810;27;45509;-57
2021/12/05 13:52:45;;;;;;;;;22.00;17.00;;;;;22.01;33.87;99822.72;5097818;27;45385;-55
2021/12/05 13:55:33;;;;;;;;;18.50;15.25;;;;;22.03;33.92;99823.44;5098209;27;45428;-53
2021/12/05 13:58:17;;;;;;;;;27.50;19.00;;;;;22.05;33.92;99843.47;5097934;27;45632;-56
2021/12/05 14:00:46;;;;;;;;;16.25;13.25;;;;;22.08;33.97;99842.41;5097631;27;45262;-54
2021/12/05 14:03:12;;;;;;;;;22.00;17.75;;;;;22.09;34.08;99847.56;5097476;27;45337;-51
2021/12/05 14:05:46;;;;;;;;;18.50;14.50;;;;;22.10;33.80;99843.13;5098190;27;45497;-52
2021/12/05 14:08:13;;;;;;;;;15.25;12.25;;;;;22.12;34.02;99848.28;5111355;27;45471;-53
2021/12/05 14:10:45;;;;;;;;;18.25;12.75;;;;;22.15;34.15;99848.88;5117727;27;46668;-53
2021/12/05 14:13:11;;;;;;;;;12.00;11.00;;;;;22.13;34.00;99850.78;5117737;27;45326;-59
2021/12/05 14:15:37;;;;;;;;;16.50;10.75;;;;;22.17;33.90;99849.59;5118420;27;45346;-57
2021/12/05 14:18:03;;;;;;;;;15.25;11.25;;;;;22.19;34.00;99852.97;5118353;27;45682;-45
2021/12/05 14:20:29;;;;;;;;;17.25;12.25;;;;;22.21;34.08;99850.19;5118333;27;45408;-49
2021/12/05 14:22:56;;;;;;;;;20.00;11.25;;;;;22.16;34.05;99847.91;5118555;27;45426;-54
2021/12/05 14:25:26;;;;;;;;;12.50;10.50;;;;;22.21;33.92;99844.91;5118317;27;45426;-52
2021/12/05 14:27:57;;;;;;;;;15.00;8.00;;;;;22.20;33.67;99854.66;5118633;27;45535;-46
2021/12/05 14:30:25;;;;;;;;;13.50;10.50;;;;;22.17;33.94;99861.94;5118472;27;45390;-46
2021/12/05 14:32:58;;;;;;;;;12.75;11.00;;;;;22.21;34.20;99866.88;5083853;27;45369;-55
2021/12/05 14:35:41;;;;;;;;;9.00;8.50;;;;;22.24;34.05;99871.91;5095612;27;45678;-54
2021/12/05 14:38:08;;;;;;;;;12.25;10.50;;;;;22.27;34.02;99875.28;5097393;27;45252;-53
2021/12/05 14:40:35;;;;;;;;;13.75;9.00;;;;;22.28;34.10;99877.78;5097390;27;46629;-57
2021/12/05 14:43:06;;;;;;;;;14.50;7.00;;;;;22.29;33.87;99876.81;5097008;27;45503;-55
2021/12/05 14:45:36;;;;;;;;;9.25;7.75;;;;;22.30;33.80;99882.97;5095314;27;45373;-56
2021/12/05 14:48:07;;;;;;;;;9.75;5.25;;;;;22.31;34.14;99882.00;5074152;27;45459;-56
2021/12/05 14:50:35;;;;;;;;;9.75;7.75;;;;;22.30;33.89;99890.88;5088549;27;46007;-56
2021/12/05 14:53:05;;;;;;;;;6.25;6.00;;;;;22.30;34.14;99890.88;5088785;27;45327;-57
2021/12/05 14:55:33;;;;;;;;;11.25;9.00;;;;;22.33;34.15;99893.25;5058943;28;45269;-54
2021/12/05 14:58:15;;;;;;;;;12.75;9.00;;;;;22.34;34.09;99905.50;5077241;28;45691;-57
2021/12/05 15:00:44;;;;;;;;;11.25;8.00;;;;;22.37;33.71;99907.91;5076052;28;45461;-58
2021/12/05 15:03:14;;;;;;;;;9.75;6.25;;;;;22.37;33.90;99907.91;5088657;27;45358;-56
2021/12/05 15:05:42;;;;;;;;;7.75;5.25;;;;;22.38;33.93;99917.50;5079580;27;45418;-58
2021/12/05 15:08:13;;;;;;;;;9.50;7.75;;;;;22.39;33.93;99921.84;5096853;27;45470;-57
2021/12/05 15:10:41;;;;;;;;;9.00;8.25;;;;;22.38;33.98;99920.16;5097394;27;45683;-60
2021/12/05 15:13:08;;;;;;;;;9.00;6.00;;;;;22.41;33.98;99924.38;5097133;27;45240;-63
2021/12/05 15:15:35;;;;;;;;;7.25;7.00;;;;;22.43;34.04;99925.97;5097146;27;45346;-59
2021/12/05 15:18:00;;;;;;;;;10.25;7.50;;;;;22.42;34.01;99926.91;5097476;27;45327;-53
2021/12/05 15:20:28;;;;;;;;;6.75;5.00;;;;;22.42;33.96;99932.19;5097401;27;46753;-61
2021/12/05 15:22:59;;;;;;;;;7.00;5.50;;;;;22.46;33.83;99938.91;5096917;27;45680;-59
2021/12/05 15:25:27;;;;;;;;;7.75;4.50;;;;;22.47;33.92;99945.88;5097531;27;45706;-55
2021/12/05 15:27:54;;;;;;;;;7.00;6.00;;;;;22.47;33.92;99940.59;5097184;27;45338;-52
2021/12/05 15:30:31;;;;;;;;;5.00;5.00;;;;;22.49;33.83;99951.88;5101328;27;46738;-61
2021/12/05 15:33:00;;;;;;;;;7.50;4.25;;;;;22.47;33.86;99964.34;5104196;27;45453;-60
2021/12/05 15:35:27;;;;;;;;;4.00;3.00;;;;;22.45;33.69;99955.69;5104279;27;45251;-64
2021/12/05 15:37:55;;;;;;;;;6.25;5.00;;;;;22.46;33.84;99972.41;5104018;27;45560;-61
2021/12/05 15:40:24;;;;;;;;;5.75;5.75;;;;;22.46;33.86;99970.59;5099939;27;46396;-55
2021/12/05 15:42:50;;;;;;;;;6.25;4.00;;;;;22.50;33.94;99981.75;5100300;27;45761;-55
2021/12/05 15:45:18;;;;;;;;;5.00;4.25;;;;;22.50;33.74;99982.59;5103155;27;45383;-55
2021/12/05 15:47:46;;;;;;;;;3.00;2.25;;;;;22.53;33.77;99984.16;5103422;27;45358;-52
2021/12/05 15:50:30;;;;;;;;;4.25;3.75;;;;;22.59;33.83;99996.03;5103137;27;46295;-56
2021/12/05 15:53:10;;;;;;;;;4.25;3.00;;;;;22.62;33.70;99998.47;5103537;27;45936;-55
2021/12/05 15:55:39;;;;;;;;;3.00;3.00;;;;;22.65;33.90;100006.16;5103279;27;45488;-58
2021/12/05 15:58:17;;;;;;;;;3.00;3.00;;;;;22.67;33.65;100009.50;5103300;27;45586;-59
2021/12/05 16:00:59;;;;;;;;;2.50;2.25;;;;;22.68;33.62;100019.09;5103024;27;46514;-58
2021/12/05 16:03:37;;;;;;;;;2.50;2.50;;;;;22.71;33.80;100016.22;5085027;27;45355;-61
2021/12/05 16:06:04;;;;;;;;;4.50;3.50;;;;;22.72;33.77;100023.19;5103344;27;45454;-59
2021/12/05 16:08:32;;;;;;;;;3.25;3.00;;;;;22.74;33.43;100034.50;5103534;27;45653;-61
2021/12/05 16:10:59;;;;;;;;;3.00;3.00;;;;;22.76;33.67;100040.50;5103088;27;46135;-57
2021/12/05 16:13:36;;;;;;;;;4.00;4.00;;;;;22.77;33.77;100038.69;5084289;27;45748;-58
2021/12/05 16:16:15;;;;;;;;;4.50;3.75;;;;;22.79;33.58;100050.81;5103095;27;45288;-59
2021/12/05 16:18:44;;;;;;;;;3.25;3.00;;;;;22.79;33.63;100056.09;5103064;27;45485;-60
2021/12/05 16:21:19;;;;;;;;;5.00;4.00;;;;;22.83;33.72;100056.69;5102772;27;47183;-60
2021/12/05 16:23:45;;;;;;;;;3.75;2.00;;;;;22.83;33.56;100056.69;5102373;27;45382;-57
2021/12/05 16:26:19;;;;;;;;;2.25;2.25;;;;;22.84;33.81;100064.53;5102507;27;45336;-59
2021/12/05 16:28:49;;;;;;;;;2.75;2.75;;;;;22.88;33.47;100066.91;5103226;27;45429;-56
2021/12/05 16:31:27;;;;;;;;;5.00;2.00;;;;;22.87;33.44;100073.16;5102663;27;45560;-54
2021/12/05 16:33:56;;;;;;;;;3.00;3.00;;;;;22.89;33.44;100079.16;5102459;27;45445;-56
2021/12/05 16:36:29;;;;;;;;;2.00;2.00;;;;;22.92;33.56;100086.84;5102713;27;45410;-52
2021/12/05 16:38:55;;;;;;;;;3.75;3.75;;;;;22.93;33.67;100085.91;5102919;27;45386;-55
2021/12/05 16:41:31;;;;;;;;;4.00;2.00;;;;;22.93;33.55;100088.53;5081192;27;46338;-59
2021/12/05 16:43:59;;;;;;;;;4.00;2.25;;;;;22.94;33.38;100091.03;5099116;27;45668;-60
2021/12/05 16:46:33;;;;;;;;;3.50;3.50;;;;;22.96;33.47;100099.69;5099222;27;45430;-56
2021/12/05 16:49:02;;;;;;;;;2.00;2.00;;;;;22.98;33.40;100099.59;5099567;27;45266;-55
2021/12/05 16:51:42;;;;;;;;;2.25;2.00;;;;;22.99;33.42;100109.19;5080700;27;46169;-59
2021/12/05 16:54:13;;;;;;;;;2.00;1.75;;;;;22.98;33.37;100105.72;5080507;27;46119;-58
2021/12/05 16:56:47;;;;;;;;;3.00;3.00;;;;;23.00;33.43;100111.72;5080766;27;45488;-58
2021/12/05 16:59:18;;;;;;;;;3.00;2.00;;;;;23.02;33.39;100116.88;5099105;27;45309;-57
2021/12/05 17:01:45;;;;;;;;;2.00;1.50;;;;;23.03;33.35;100115.94;5098462;27;46831;-57
2021/12/05 17:04:11;;;;;;;;;2.00;2.00;;;;;23.05;33.19;100119.31;5080148;27;45715;-57
2021/12/05 17:06:45;;;;;;;;;3.00;2.00;;;;;23.06;33.27;100117.50;5080130;27;45824;-57
2021/12/05 17:09:12;;;;;;;;;2.00;2.00;;;;;23.08;33.32;100123.50;5081026;27;45581;-56
2021/12/05 17:11:38;;;;;;;;;3.25;1.00;;;;;23.08;33.08;100121.72;5080437;27;46959;-60
2021/12/05 17:14:04;;;;;;;;;2.00;2.00;;;;;23.10;33.31;100135.63;5098837;27;45813;-58
2021/12/05 17:16:31;;;;;;;;;1.50;1.50;;;;;23.08;33.26;100137.56;5099512;27;45423;-58
2021/12/05 17:19:06;;;;;;;;;3.00;3.00;;;;;23.11;33.37;100142.59;5098945;27;45296;-57